sensor_id;sensor_type;location;lat;lon;timestamp;P1;durP1;ratioP1;P2;durP2;ratioP2
24337;SDS011;12457;50.832;4.346;2022-10-16T00:01:35;3.97;;;2.55;;
24337;SDS011;12457;50.832;4.346;2022-10-16T00:04:01;4.47;;;2.40;;
24337;SDS011;12457;50.832;4.346;2022-10-16T00:06:28;3.08;;;1.65;;
24337;SDS011;12457;50.832;4.346;2022-10-16T00:08:54;7.60;;;1.60;;
24337;SDS011;12457;50.832;4.346;2022-10-16T00:11:21;3.45;;;1.35;;
24337;SDS011;12457;50.832;4.346;2022-10-16T00:13:49;2.35;;;1.67;;
24337;SDS011;12457;50.832;4.346;2022-10-16T00:16:17;3.00;;;1.67;;
24337;SDS011;12457;50.832;4.346;2022-10-16T00:18:43;3.65;;;1.42;;
24337;SDS011;12457;50.832;4.346;2022-10-16T00:21:10;4.78;;;1.70;;
24337;SDS011;12457;50.832;4.346;2022-10-16T00:23:41;4.72;;;1.52;;
24337;SDS011;12457;50.832;4.346;2022-10-16T00:26:08;4.80;;;1.83;;
24337;SDS011;12457;50.832;4.346;2022-10-16T00:28:36;3.55;;;1.58;;
24337;SDS011;12457;50.832;4.346;2022-10-16T00:31:03;3.22;;;1.50;;
24337;SDS011;12457;50.832;4.346;2022-10-16T00:33:34;2.08;;;1.48;;
24337;SDS011;12457;50.832;4.346;2022-10-16T00:36:01;3.20;;;1.63;;
24337;SDS011;12457;50.832;4.346;2022-10-16T00:38:28;5.35;;;1.60;;
24337;SDS011;12457;50.832;4.346;2022-10-16T00:40:55;4.78;;;1.20;;
24337;SDS011;12457;50.832;4.346;2022-10-16T00:46:11;3.35;;;1.70;;
24337;SDS011;12457;50.832;4.346;2022-10-16T00:48:42;2.80;;;1.65;;
24337;SDS011;12457;50.832;4.346;2022-10-16T00:51:40;3.97;;;1.70;;
24337;SDS011;12457;50.832;4.346;2022-10-16T00:54:09;6.72;;;1.67;;
24337;SDS011;12457;50.832;4.346;2022-10-16T00:56:39;5.00;;;1.48;;
24337;SDS011;12457;50.832;4.346;2022-10-16T00:59:07;3.13;;;1.50;;
24337;SDS011;12457;50.832;4.346;2022-10-16T01:01:40;4.10;;;1.50;;
24337;SDS011;12457;50.832;4.346;2022-10-16T01:04:05;4.72;;;1.70;;
24337;SDS011;12457;50.832;4.346;2022-10-16T01:06:47;2.67;;;1.58;;
24337;SDS011;12457;50.832;4.346;2022-10-16T01:14:40;3.97;;;2.10;;
24337;SDS011;12457;50.832;4.346;2022-10-16T01:17:24;4.10;;;1.60;;
24337;SDS011;12457;50.832;4.346;2022-10-16T01:20:07;3.45;;;1.70;;
24337;SDS011;12457;50.832;4.346;2022-10-16T01:29:04;3.88;;;2.10;;
24337;SDS011;12457;50.832;4.346;2022-10-16T01:31:40;3.72;;;1.80;;
24337;SDS011;12457;50.832;4.346;2022-10-16T01:34:16;4.63;;;1.80;;
24337;SDS011;12457;50.832;4.346;2022-10-16T01:36:51;5.18;;;1.60;;
24337;SDS011;12457;50.832;4.346;2022-10-16T01:39:29;2.55;;;1.48;;
24337;SDS011;12457;50.832;4.346;2022-10-16T01:42:08;2.88;;;1.60;;
24337;SDS011;12457;50.832;4.346;2022-10-16T01:44:55;3.35;;;1.77;;
24337;SDS011;12457;50.832;4.346;2022-10-16T01:47:24;3.42;;;1.73;;
24337;SDS011;12457;50.832;4.346;2022-10-16T01:49:51;6.82;;;2.10;;
24337;SDS011;12457;50.832;4.346;2022-10-16T01:52:20;6.50;;;1.90;;
24337;SDS011;12457;50.832;4.346;2022-10-16T01:54:49;2.90;;;1.90;;
24337;SDS011;12457;50.832;4.346;2022-10-16T01:57:18;2.72;;;1.83;;
24337;SDS011;12457;50.832;4.346;2022-10-16T01:59:48;2.78;;;1.70;;
24337;SDS011;12457;50.832;4.346;2022-10-16T02:02:17;2.28;;;1.65;;
24337;SDS011;12457;50.832;4.346;2022-10-16T02:07:14;2.83;;;1.42;;
24337;SDS011;12457;50.832;4.346;2022-10-16T02:09:40;4.93;;;2.13;;
24337;SDS011;12457;50.832;4.346;2022-10-16T02:12:10;3.17;;;1.52;;
24337;SDS011;12457;50.832;4.346;2022-10-16T02:14:46;5.68;;;1.70;;
24337;SDS011;12457;50.832;4.346;2022-10-16T02:17:13;5.82;;;1.67;;
24337;SDS011;12457;50.832;4.346;2022-10-16T02:19:41;5.47;;;1.70;;
24337;SDS011;12457;50.832;4.346;2022-10-16T02:22:08;1.83;;;1.40;;
24337;SDS011;12457;50.832;4.346;2022-10-16T02:27:24;3.85;;;1.50;;
24337;SDS011;12457;50.832;4.346;2022-10-16T02:30:11;2.78;;;1.55;;
24337;SDS011;12457;50.832;4.346;2022-10-16T02:32:44;4.97;;;1.90;;
24337;SDS011;12457;50.832;4.346;2022-10-16T02:35:13;5.03;;;1.80;;
24337;SDS011;12457;50.832;4.346;2022-10-16T02:37:42;4.88;;;1.80;;
24337;SDS011;12457;50.832;4.346;2022-10-16T02:40:08;5.07;;;1.75;;
24337;SDS011;12457;50.832;4.346;2022-10-16T02:42:36;6.85;;;1.70;;
24337;SDS011;12457;50.832;4.346;2022-10-16T02:45:07;2.95;;;1.80;;
24337;SDS011;12457;50.832;4.346;2022-10-16T02:47:34;4.53;;;2.20;;
24337;SDS011;12457;50.832;4.346;2022-10-16T02:50:00;3.72;;;2.22;;
24337;SDS011;12457;50.832;4.346;2022-10-16T02:52:26;5.30;;;2.08;;
24337;SDS011;12457;50.832;4.346;2022-10-16T02:54:51;7.63;;;2.28;;
24337;SDS011;12457;50.832;4.346;2022-10-16T02:57:17;2.75;;;1.90;;
24337;SDS011;12457;50.832;4.346;2022-10-16T02:59:43;3.13;;;1.80;;
24337;SDS011;12457;50.832;4.346;2022-10-16T03:02:09;2.35;;;1.80;;
24337;SDS011;12457;50.832;4.346;2022-10-16T03:04:35;6.57;;;2.40;;
24337;SDS011;12457;50.832;4.346;2022-10-16T03:07:01;9.02;;;2.00;;
24337;SDS011;12457;50.832;4.346;2022-10-16T03:09:26;4.45;;;2.10;;
24337;SDS011;12457;50.832;4.346;2022-10-16T03:11:52;4.00;;;2.22;;
24337;SDS011;12457;50.832;4.346;2022-10-16T03:14:18;5.25;;;2.08;;
24337;SDS011;12457;50.832;4.346;2022-10-16T03:16:43;4.10;;;2.08;;
24337;SDS011;12457;50.832;4.346;2022-10-16T03:19:09;4.00;;;1.88;;
24337;SDS011;12457;50.832;4.346;2022-10-16T03:21:34;4.03;;;1.92;;
24337;SDS011;12457;50.832;4.346;2022-10-16T03:24:00;4.95;;;1.95;;
24337;SDS011;12457;50.832;4.346;2022-10-16T03:26:26;5.57;;;1.95;;
24337;SDS011;12457;50.832;4.346;2022-10-16T03:28:51;6.60;;;1.95;;
24337;SDS011;12457;50.832;4.346;2022-10-16T03:31:17;3.40;;;2.25;;
24337;SDS011;12457;50.832;4.346;2022-10-16T03:33:43;3.97;;;2.08;;
24337;SDS011;12457;50.832;4.346;2022-10-16T03:36:08;4.63;;;2.20;;
24337;SDS011;12457;50.832;4.346;2022-10-16T03:38:34;9.38;;;2.25;;
24337;SDS011;12457;50.832;4.346;2022-10-16T03:41:00;6.93;;;2.13;;
24337;SDS011;12457;50.832;4.346;2022-10-16T03:43:26;5.60;;;2.00;;
24337;SDS011;12457;50.832;4.346;2022-10-16T03:45:51;6.43;;;1.92;;
24337;SDS011;12457;50.832;4.346;2022-10-16T03:48:18;6.47;;;2.30;;
24337;SDS011;12457;50.832;4.346;2022-10-16T03:50:44;5.65;;;2.00;;
24337;SDS011;12457;50.832;4.346;2022-10-16T03:53:10;8.65;;;2.03;;
24337;SDS011;12457;50.832;4.346;2022-10-16T03:55:36;4.15;;;2.20;;
24337;SDS011;12457;50.832;4.346;2022-10-16T03:58:02;2.95;;;1.98;;
24337;SDS011;12457;50.832;4.346;2022-10-16T04:00:28;7.55;;;2.42;;
24337;SDS011;12457;50.832;4.346;2022-10-16T04:02:53;5.97;;;2.08;;
24337;SDS011;12457;50.832;4.346;2022-10-16T04:05:19;3.30;;;1.80;;
24337;SDS011;12457;50.832;4.346;2022-10-16T04:07:44;4.45;;;2.28;;
24337;SDS011;12457;50.832;4.346;2022-10-16T04:10:10;6.50;;;2.30;;
24337;SDS011;12457;50.832;4.346;2022-10-16T04:12:36;7.78;;;2.05;;
24337;SDS011;12457;50.832;4.346;2022-10-16T04:15:01;3.22;;;1.88;;
24337;SDS011;12457;50.832;4.346;2022-10-16T04:17:28;4.38;;;1.92;;
24337;SDS011;12457;50.832;4.346;2022-10-16T04:19:54;3.47;;;2.08;;
24337;SDS011;12457;50.832;4.346;2022-10-16T04:22:20;6.88;;;3.10;;
24337;SDS011;12457;50.832;4.346;2022-10-16T04:24:45;5.43;;;1.85;;
24337;SDS011;12457;50.832;4.346;2022-10-16T04:27:11;9.25;;;2.20;;
24337;SDS011;12457;50.832;4.346;2022-10-16T04:29:36;4.90;;;2.22;;
24337;SDS011;12457;50.832;4.346;2022-10-16T04:32:02;5.93;;;1.80;;
24337;SDS011;12457;50.832;4.346;2022-10-16T04:34:28;3.88;;;2.03;;
24337;SDS011;12457;50.832;4.346;2022-10-16T04:36:53;5.25;;;2.15;;
24337;SDS011;12457;50.832;4.346;2022-10-16T04:39:19;3.67;;;2.20;;
24337;SDS011;12457;50.832;4.346;2022-10-16T04:41:44;5.50;;;1.85;;
24337;SDS011;12457;50.832;4.346;2022-10-16T04:44:11;9.57;;;2.20;;
24337;SDS011;12457;50.832;4.346;2022-10-16T04:46:38;4.38;;;1.85;;
24337;SDS011;12457;50.832;4.346;2022-10-16T04:49:04;6.38;;;2.30;;
24337;SDS011;12457;50.832;4.346;2022-10-16T04:51:29;7.28;;;2.25;;
24337;SDS011;12457;50.832;4.346;2022-10-16T04:53:56;11.02;;;2.78;;
24337;SDS011;12457;50.832;4.346;2022-10-16T04:56:22;10.43;;;3.55;;
24337;SDS011;12457;50.832;4.346;2022-10-16T04:58:48;13.07;;;2.95;;
24337;SDS011;12457;50.832;4.346;2022-10-16T05:01:13;4.10;;;2.40;;
24337;SDS011;12457;50.832;4.346;2022-10-16T05:03:39;8.07;;;3.40;;
24337;SDS011;12457;50.832;4.346;2022-10-16T05:06:05;7.65;;;3.03;;
24337;SDS011;12457;50.832;4.346;2022-10-16T05:08:31;7.80;;;3.35;;
24337;SDS011;12457;50.832;4.346;2022-10-16T05:10:57;6.82;;;2.33;;
24337;SDS011;12457;50.832;4.346;2022-10-16T05:13:23;5.43;;;2.72;;
24337;SDS011;12457;50.832;4.346;2022-10-16T05:15:48;8.35;;;2.47;;
24337;SDS011;12457;50.832;4.346;2022-10-16T05:18:15;7.82;;;3.40;;
24337;SDS011;12457;50.832;4.346;2022-10-16T05:20:41;8.32;;;3.17;;
24337;SDS011;12457;50.832;4.346;2022-10-16T05:23:07;7.18;;;3.05;;
24337;SDS011;12457;50.832;4.346;2022-10-16T05:25:35;7.40;;;3.40;;
24337;SDS011;12457;50.832;4.346;2022-10-16T05:28:01;7.63;;;3.88;;
24337;SDS011;12457;50.832;4.346;2022-10-16T05:30:27;9.05;;;3.13;;
24337;SDS011;12457;50.832;4.346;2022-10-16T05:32:52;7.43;;;3.70;;
24337;SDS011;12457;50.832;4.346;2022-10-16T05:35:18;9.18;;;4.45;;
24337;SDS011;12457;50.832;4.346;2022-10-16T05:37:45;8.25;;;2.97;;
24337;SDS011;12457;50.832;4.346;2022-10-16T05:40:11;5.35;;;2.90;;
24337;SDS011;12457;50.832;4.346;2022-10-16T05:42:38;6.18;;;2.90;;
24337;SDS011;12457;50.832;4.346;2022-10-16T05:45:04;8.18;;;3.38;;
24337;SDS011;12457;50.832;4.346;2022-10-16T05:47:31;7.13;;;3.35;;
24337;SDS011;12457;50.832;4.346;2022-10-16T05:49:58;7.28;;;3.00;;
24337;SDS011;12457;50.832;4.346;2022-10-16T05:52:24;8.00;;;2.90;;
24337;SDS011;12457;50.832;4.346;2022-10-16T05:54:49;6.47;;;2.78;;
24337;SDS011;12457;50.832;4.346;2022-10-16T05:57:15;5.97;;;3.17;;
24337;SDS011;12457;50.832;4.346;2022-10-16T05:59:40;8.05;;;3.13;;
24337;SDS011;12457;50.832;4.346;2022-10-16T06:02:08;6.57;;;3.80;;
24337;SDS011;12457;50.832;4.346;2022-10-16T06:04:38;5.30;;;3.10;;
24337;SDS011;12457;50.832;4.346;2022-10-16T06:07:03;9.25;;;3.17;;
24337;SDS011;12457;50.832;4.346;2022-10-16T06:09:29;7.43;;;3.28;;
24337;SDS011;12457;50.832;4.346;2022-10-16T06:11:56;8.85;;;4.18;;
24337;SDS011;12457;50.832;4.346;2022-10-16T06:14:22;6.03;;;3.70;;
24337;SDS011;12457;50.832;4.346;2022-10-16T06:16:47;10.25;;;4.57;;
24337;SDS011;12457;50.832;4.346;2022-10-16T06:19:13;12.95;;;3.53;;
24337;SDS011;12457;50.832;4.346;2022-10-16T06:21:39;8.82;;;3.95;;
24337;SDS011;12457;50.832;4.346;2022-10-16T06:24:04;8.60;;;3.92;;
24337;SDS011;12457;50.832;4.346;2022-10-16T06:26:30;5.25;;;3.67;;
24337;SDS011;12457;50.832;4.346;2022-10-16T06:28:57;9.35;;;3.55;;
24337;SDS011;12457;50.832;4.346;2022-10-16T06:31:24;9.65;;;3.10;;
24337;SDS011;12457;50.832;4.346;2022-10-16T06:33:55;7.45;;;3.88;;
24337;SDS011;12457;50.832;4.346;2022-10-16T06:36:22;6.80;;;3.85;;
24337;SDS011;12457;50.832;4.346;2022-10-16T06:38:48;8.70;;;4.13;;
24337;SDS011;12457;50.832;4.346;2022-10-16T06:41:14;8.30;;;4.10;;
24337;SDS011;12457;50.832;4.346;2022-10-16T06:43:42;12.43;;;4.07;;
24337;SDS011;12457;50.832;4.346;2022-10-16T06:46:10;14.65;;;4.22;;
24337;SDS011;12457;50.832;4.346;2022-10-16T06:48:36;6.65;;;3.20;;
24337;SDS011;12457;50.832;4.346;2022-10-16T06:51:03;11.73;;;6.10;;
24337;SDS011;12457;50.832;4.346;2022-10-16T06:53:30;12.77;;;4.70;;
24337;SDS011;12457;50.832;4.346;2022-10-16T06:55:57;9.15;;;4.10;;
24337;SDS011;12457;50.832;4.346;2022-10-16T06:58:31;11.85;;;3.78;;
24337;SDS011;12457;50.832;4.346;2022-10-16T07:00:56;10.27;;;5.05;;
24337;SDS011;12457;50.832;4.346;2022-10-16T07:03:23;7.18;;;3.50;;
24337;SDS011;12457;50.832;4.346;2022-10-16T07:05:49;7.30;;;3.22;;
24337;SDS011;12457;50.832;4.346;2022-10-16T07:08:15;7.70;;;3.70;;
24337;SDS011;12457;50.832;4.346;2022-10-16T07:10:40;8.48;;;3.67;;
24337;SDS011;12457;50.832;4.346;2022-10-16T07:13:06;6.38;;;3.63;;
24337;SDS011;12457;50.832;4.346;2022-10-16T07:15:32;9.40;;;5.03;;
24337;SDS011;12457;50.832;4.346;2022-10-16T07:17:58;7.95;;;3.85;;
24337;SDS011;12457;50.832;4.346;2022-10-16T07:20:24;13.82;;;6.15;;
24337;SDS011;12457;50.832;4.346;2022-10-16T07:22:50;13.50;;;4.63;;
24337;SDS011;12457;50.832;4.346;2022-10-16T07:25:16;21.27;;;6.72;;
24337;SDS011;12457;50.832;4.346;2022-10-16T07:27:41;13.18;;;4.53;;
24337;SDS011;12457;50.832;4.346;2022-10-16T07:30:07;13.02;;;6.50;;
24337;SDS011;12457;50.832;4.346;2022-10-16T07:32:33;8.50;;;3.58;;
24337;SDS011;12457;50.832;4.346;2022-10-16T07:34:58;6.90;;;3.38;;
24337;SDS011;12457;50.832;4.346;2022-10-16T07:37:24;17.65;;;9.63;;
24337;SDS011;12457;50.832;4.346;2022-10-16T07:39:49;10.13;;;6.40;;
24337;SDS011;12457;50.832;4.346;2022-10-16T07:42:16;13.38;;;6.05;;
24337;SDS011;12457;50.832;4.346;2022-10-16T07:44:42;5.70;;;2.67;;
24337;SDS011;12457;50.832;4.346;2022-10-16T07:47:09;7.85;;;3.38;;
24337;SDS011;12457;50.832;4.346;2022-10-16T07:49:35;11.60;;;6.43;;
24337;SDS011;12457;50.832;4.346;2022-10-16T07:52:01;13.13;;;6.07;;
24337;SDS011;12457;50.832;4.346;2022-10-16T07:54:27;7.10;;;3.40;;
24337;SDS011;12457;50.832;4.346;2022-10-16T07:56:53;8.35;;;4.00;;
24337;SDS011;12457;50.832;4.346;2022-10-16T07:59:18;10.88;;;2.97;;
24337;SDS011;12457;50.832;4.346;2022-10-16T08:01:44;7.38;;;2.90;;
24337;SDS011;12457;50.832;4.346;2022-10-16T08:04:10;10.27;;;5.78;;
24337;SDS011;12457;50.832;4.346;2022-10-16T08:06:36;14.27;;;5.18;;
24337;SDS011;12457;50.832;4.346;2022-10-16T08:09:03;27.13;;;7.85;;
24337;SDS011;12457;50.832;4.346;2022-10-16T08:11:30;22.98;;;5.38;;
24337;SDS011;12457;50.832;4.346;2022-10-16T08:13:56;10.57;;;3.60;;
24337;SDS011;12457;50.832;4.346;2022-10-16T08:16:22;10.52;;;4.05;;
24337;SDS011;12457;50.832;4.346;2022-10-16T08:18:48;5.20;;;2.95;;
24337;SDS011;12457;50.832;4.346;2022-10-16T08:21:17;8.18;;;3.25;;
24337;SDS011;12457;50.832;4.346;2022-10-16T08:23:44;9.02;;;3.95;;
24337;SDS011;12457;50.832;4.346;2022-10-16T08:26:10;4.55;;;2.70;;
24337;SDS011;12457;50.832;4.346;2022-10-16T08:28:36;5.68;;;3.22;;
24337;SDS011;12457;50.832;4.346;2022-10-16T08:31:09;6.93;;;3.03;;
24337;SDS011;12457;50.832;4.346;2022-10-16T08:33:38;15.90;;;5.28;;
24337;SDS011;12457;50.832;4.346;2022-10-16T08:36:06;10.05;;;3.33;;
24337;SDS011;12457;50.832;4.346;2022-10-16T08:38:33;15.48;;;8.10;;
24337;SDS011;12457;50.832;4.346;2022-10-16T08:44:10;11.80;;;4.35;;
24337;SDS011;12457;50.832;4.346;2022-10-16T08:46:49;10.52;;;3.47;;
24337;SDS011;12457;50.832;4.346;2022-10-16T08:49:32;6.78;;;3.08;;
24337;SDS011;12457;50.832;4.346;2022-10-16T08:51:58;9.43;;;4.43;;
24337;SDS011;12457;50.832;4.346;2022-10-16T08:57:11;9.57;;;4.28;;
24337;SDS011;12457;50.832;4.346;2022-10-16T08:59:47;11.88;;;4.65;;
24337;SDS011;12457;50.832;4.346;2022-10-16T09:02:37;19.10;;;7.93;;
24337;SDS011;12457;50.832;4.346;2022-10-16T09:05:21;16.52;;;8.18;;
24337;SDS011;12457;50.832;4.346;2022-10-16T09:08:09;32.60;;;17.98;;
24337;SDS011;12457;50.832;4.346;2022-10-16T09:18:41;27.70;;;12.65;;
24337;SDS011;12457;50.832;4.346;2022-10-16T09:21:25;11.80;;;6.78;;
24337;SDS011;12457;50.832;4.346;2022-10-16T09:23:56;51.85;;;31.27;;
24337;SDS011;12457;50.832;4.346;2022-10-16T09:26:24;44.83;;;25.10;;
24337;SDS011;12457;50.832;4.346;2022-10-16T09:28:51;51.78;;;31.83;;
24337;SDS011;12457;50.832;4.346;2022-10-16T09:31:19;44.10;;;28.55;;
24337;SDS011;12457;50.832;4.346;2022-10-16T09:33:48;35.63;;;22.75;;
24337;SDS011;12457;50.832;4.346;2022-10-16T09:36:18;17.27;;;9.48;;
24337;SDS011;12457;50.832;4.346;2022-10-16T09:38:46;19.02;;;7.50;;
24337;SDS011;12457;50.832;4.346;2022-10-16T09:48:59;24.27;;;13.27;;
24337;SDS011;12457;50.832;4.346;2022-10-16T09:51:29;22.40;;;14.82;;
24337;SDS011;12457;50.832;4.346;2022-10-16T09:54:00;29.48;;;17.77;;
24337;SDS011;12457;50.832;4.346;2022-10-16T09:56:47;9.18;;;5.00;;
24337;SDS011;12457;50.832;4.346;2022-10-16T09:59:18;10.63;;;4.80;;
24337;SDS011;12457;50.832;4.346;2022-10-16T10:01:45;25.13;;;14.40;;
24337;SDS011;12457;50.832;4.346;2022-10-16T10:04:13;11.15;;;4.50;;
24337;SDS011;12457;50.832;4.346;2022-10-16T10:09:17;10.00;;;3.70;;
24337;SDS011;12457;50.832;4.346;2022-10-16T10:11:53;4.55;;;2.05;;
24337;SDS011;12457;50.832;4.346;2022-10-16T10:19:30;17.25;;;8.65;;
24337;SDS011;12457;50.832;4.346;2022-10-16T10:22:17;26.33;;;12.98;;
24337;SDS011;12457;50.832;4.346;2022-10-16T10:27:53;4.18;;;2.03;;
24337;SDS011;12457;50.832;4.346;2022-10-16T10:30:24;8.60;;;3.30;;
24337;SDS011;12457;50.832;4.346;2022-10-16T10:35:50;14.27;;;4.43;;
24337;SDS011;12457;50.832;4.346;2022-10-16T10:38:27;10.10;;;3.35;;
24337;SDS011;12457;50.832;4.346;2022-10-16T10:43:41;11.82;;;2.03;;
24337;SDS011;12457;50.832;4.346;2022-10-16T10:46:30;8.13;;;2.78;;
24337;SDS011;12457;50.832;4.346;2022-10-16T10:52:22;8.77;;;3.17;;
24337;SDS011;12457;50.832;4.346;2022-10-16T11:03:42;5.45;;;2.60;;
24337;SDS011;12457;50.832;4.346;2022-10-16T11:06:18;9.43;;;2.15;;
24337;SDS011;12457;50.832;4.346;2022-10-16T11:08:57;5.80;;;1.90;;
24337;SDS011;12457;50.832;4.346;2022-10-16T11:11:40;11.18;;;4.97;;
24337;SDS011;12457;50.832;4.346;2022-10-16T11:16:38;11.05;;;5.75;;
24337;SDS011;12457;50.832;4.346;2022-10-16T11:19:11;7.18;;;1.88;;
24337;SDS011;12457;50.832;4.346;2022-10-16T11:22:07;5.13;;;1.80;;
24337;SDS011;12457;50.832;4.346;2022-10-16T11:24:55;11.43;;;5.40;;
24337;SDS011;12457;50.832;4.346;2022-10-16T11:27:53;8.52;;;2.15;;
24337;SDS011;12457;50.832;4.346;2022-10-16T11:30:22;2.97;;;1.70;;
24337;SDS011;12457;50.832;4.346;2022-10-16T11:32:52;4.07;;;2.10;;
24337;SDS011;12457;50.832;4.346;2022-10-16T11:47:01;14.40;;;5.78;;
24337;SDS011;12457;50.832;4.346;2022-10-16T11:49:50;24.15;;;14.30;;
24337;SDS011;12457;50.832;4.346;2022-10-16T11:52:31;13.48;;;4.95;;
24337;SDS011;12457;50.832;4.346;2022-10-16T11:55:14;10.35;;;3.78;;
24337;SDS011;12457;50.832;4.346;2022-10-16T11:57:52;13.57;;;4.75;;
24337;SDS011;12457;50.832;4.346;2022-10-16T12:00:30;7.22;;;3.08;;
24337;SDS011;12457;50.832;4.346;2022-10-16T12:08:45;8.45;;;3.60;;
24337;SDS011;12457;50.832;4.346;2022-10-16T12:16:33;9.45;;;5.07;;
24337;SDS011;12457;50.832;4.346;2022-10-16T12:21:58;5.32;;;3.00;;
24337;SDS011;12457;50.832;4.346;2022-10-16T12:24:38;9.48;;;3.17;;
24337;SDS011;12457;50.832;4.346;2022-10-16T12:30:03;11.13;;;5.28;;
24337;SDS011;12457;50.832;4.346;2022-10-16T12:32:33;15.13;;;6.65;;
24337;SDS011;12457;50.832;4.346;2022-10-16T12:35:01;10.73;;;5.43;;
24337;SDS011;12457;50.832;4.346;2022-10-16T12:37:33;6.72;;;3.75;;
24337;SDS011;12457;50.832;4.346;2022-10-16T12:40:11;7.97;;;4.30;;
24337;SDS011;12457;50.832;4.346;2022-10-16T12:42:49;12.43;;;5.57;;
24337;SDS011;12457;50.832;4.346;2022-10-16T12:47:53;15.20;;;6.75;;
24337;SDS011;12457;50.832;4.346;2022-10-16T12:50:23;11.35;;;4.55;;
24337;SDS011;12457;50.832;4.346;2022-10-16T12:52:51;8.73;;;3.60;;
24337;SDS011;12457;50.832;4.346;2022-10-16T12:55:19;14.93;;;6.45;;
24337;SDS011;12457;50.832;4.346;2022-10-16T12:57:59;7.57;;;2.72;;
24337;SDS011;12457;50.832;4.346;2022-10-16T13:00:45;6.78;;;2.78;;
24337;SDS011;12457;50.832;4.346;2022-10-16T13:03:40;9.48;;;3.83;;
24337;SDS011;12457;50.832;4.346;2022-10-16T13:09:17;9.43;;;2.67;;
24337;SDS011;12457;50.832;4.346;2022-10-16T13:17:52;5.82;;;2.85;;
24337;SDS011;12457;50.832;4.346;2022-10-16T13:23:42;6.57;;;2.35;;
24337;SDS011;12457;50.832;4.346;2022-10-16T13:26:59;8.10;;;2.17;;
24337;SDS011;12457;50.832;4.346;2022-10-16T13:29:18;10.07;;;4.38;;
24337;SDS011;12457;50.832;4.346;2022-10-16T13:31:45;10.70;;;3.90;;
24337;SDS011;12457;50.832;4.346;2022-10-16T13:34:14;6.32;;;1.80;;
24337;SDS011;12457;50.832;4.346;2022-10-16T13:36:52;6.20;;;2.53;;
24337;SDS011;12457;50.832;4.346;2022-10-16T13:39:25;3.63;;;1.85;;
24337;SDS011;12457;50.832;4.346;2022-10-16T13:42:14;8.20;;;2.45;;
24337;SDS011;12457;50.832;4.346;2022-10-16T13:44:47;7.45;;;2.05;;
24337;SDS011;12457;50.832;4.346;2022-10-16T13:49:46;4.85;;;2.25;;
24337;SDS011;12457;50.832;4.346;2022-10-16T13:52:23;14.75;;;6.22;;
24337;SDS011;12457;50.832;4.346;2022-10-16T13:54:49;9.57;;;3.45;;
24337;SDS011;12457;50.832;4.346;2022-10-16T13:57:15;6.15;;;1.80;;
24337;SDS011;12457;50.832;4.346;2022-10-16T13:59:42;6.25;;;3.03;;
24337;SDS011;12457;50.832;4.346;2022-10-16T14:02:21;7.78;;;1.80;;
24337;SDS011;12457;50.832;4.346;2022-10-16T14:04:54;4.97;;;1.88;;
24337;SDS011;12457;50.832;4.346;2022-10-16T14:07:23;2.50;;;1.00;;
24337;SDS011;12457;50.832;4.346;2022-10-16T14:09:51;9.55;;;2.75;;
24337;SDS011;12457;50.832;4.346;2022-10-16T14:12:19;7.25;;;2.72;;
24337;SDS011;12457;50.832;4.346;2022-10-16T14:14:47;3.22;;;1.60;;
24337;SDS011;12457;50.832;4.346;2022-10-16T14:17:22;4.95;;;1.73;;
24337;SDS011;12457;50.832;4.346;2022-10-16T14:19:51;6.75;;;1.80;;
24337;SDS011;12457;50.832;4.346;2022-10-16T14:22:22;5.90;;;1.50;;
24337;SDS011;12457;50.832;4.346;2022-10-16T14:24:57;7.78;;;2.28;;
24337;SDS011;12457;50.832;4.346;2022-10-16T14:32:41;6.28;;;1.58;;
24337;SDS011;12457;50.832;4.346;2022-10-16T14:35:28;7.28;;;2.38;;
24337;SDS011;12457;50.832;4.346;2022-10-16T14:37:57;4.25;;;1.88;;
24337;SDS011;12457;50.832;4.346;2022-10-16T14:40:25;7.43;;;2.72;;
24337;SDS011;12457;50.832;4.346;2022-10-16T14:42:54;5.45;;;2.47;;
24337;SDS011;12457;50.832;4.346;2022-10-16T14:45:21;6.38;;;2.30;;
24337;SDS011;12457;50.832;4.346;2022-10-16T14:48:34;6.97;;;2.60;;
24337;SDS011;12457;50.832;4.346;2022-10-16T14:50:42;7.15;;;2.38;;
24337;SDS011;12457;50.832;4.346;2022-10-16T14:53:09;6.88;;;2.58;;
24337;SDS011;12457;50.832;4.346;2022-10-16T14:55:37;8.50;;;2.45;;
24337;SDS011;12457;50.832;4.346;2022-10-16T14:58:03;10.40;;;2.45;;
24337;SDS011;12457;50.832;4.346;2022-10-16T15:00:29;4.00;;;2.25;;
24337;SDS011;12457;50.832;4.346;2022-10-16T15:02:55;11.98;;;3.42;;
24337;SDS011;12457;50.832;4.346;2022-10-16T15:05:21;9.98;;;3.60;;
24337;SDS011;12457;50.832;4.346;2022-10-16T15:07:51;8.43;;;3.47;;
24337;SDS011;12457;50.832;4.346;2022-10-16T15:10:21;11.93;;;4.38;;
24337;SDS011;12457;50.832;4.346;2022-10-16T15:12:48;9.40;;;4.05;;
24337;SDS011;12457;50.832;4.346;2022-10-16T15:15:15;8.45;;;3.40;;
24337;SDS011;12457;50.832;4.346;2022-10-16T15:17:52;3.67;;;2.42;;
24337;SDS011;12457;50.832;4.346;2022-10-16T15:20:26;3.47;;;1.88;;
24337;SDS011;12457;50.832;4.346;2022-10-16T15:22:55;7.15;;;3.65;;
24337;SDS011;12457;50.832;4.346;2022-10-16T15:25:38;5.30;;;1.90;;
24337;SDS011;12457;50.832;4.346;2022-10-16T15:28:14;5.10;;;2.30;;
24337;SDS011;12457;50.832;4.346;2022-10-16T15:30:41;7.78;;;3.10;;
24337;SDS011;12457;50.832;4.346;2022-10-16T15:33:17;4.68;;;2.83;;
24337;SDS011;12457;50.832;4.346;2022-10-16T15:35:47;6.13;;;1.95;;
24337;SDS011;12457;50.832;4.346;2022-10-16T15:38:15;7.15;;;1.88;;
24337;SDS011;12457;50.832;4.346;2022-10-16T15:40:42;7.80;;;4.53;;
24337;SDS011;12457;50.832;4.346;2022-10-16T15:43:09;4.63;;;1.88;;
24337;SDS011;12457;50.832;4.346;2022-10-16T15:45:35;4.38;;;1.60;;
24337;SDS011;12457;50.832;4.346;2022-10-16T15:48:01;8.07;;;2.95;;
24337;SDS011;12457;50.832;4.346;2022-10-16T15:50:26;10.98;;;2.08;;
24337;SDS011;12457;50.832;4.346;2022-10-16T15:52:52;11.65;;;4.90;;
24337;SDS011;12457;50.832;4.346;2022-10-16T15:55:18;5.32;;;2.30;;
24337;SDS011;12457;50.832;4.346;2022-10-16T15:57:44;6.65;;;2.85;;
24337;SDS011;12457;50.832;4.346;2022-10-16T16:00:12;3.85;;;2.00;;
24337;SDS011;12457;50.832;4.346;2022-10-16T16:02:42;7.60;;;1.88;;
24337;SDS011;12457;50.832;4.346;2022-10-16T16:05:09;6.63;;;1.90;;
24337;SDS011;12457;50.832;4.346;2022-10-16T16:07:36;7.97;;;1.80;;
24337;SDS011;12457;50.832;4.346;2022-10-16T16:10:03;6.78;;;2.22;;
24337;SDS011;12457;50.832;4.346;2022-10-16T16:12:30;34.53;;;17.17;;
24337;SDS011;12457;50.832;4.346;2022-10-16T16:14:56;7.85;;;3.08;;
24337;SDS011;12457;50.832;4.346;2022-10-16T16:17:22;5.25;;;2.20;;
24337;SDS011;12457;50.832;4.346;2022-10-16T16:19:49;4.50;;;2.05;;
24337;SDS011;12457;50.832;4.346;2022-10-16T16:22:15;7.25;;;3.55;;
24337;SDS011;12457;50.832;4.346;2022-10-16T16:24:40;8.60;;;3.58;;
24337;SDS011;12457;50.832;4.346;2022-10-16T16:27:06;11.90;;;2.88;;
24337;SDS011;12457;50.832;4.346;2022-10-16T16:29:32;11.35;;;2.83;;
24337;SDS011;12457;50.832;4.346;2022-10-16T16:31:58;7.90;;;2.80;;
24337;SDS011;12457;50.832;4.346;2022-10-16T16:34:25;13.45;;;3.13;;
24337;SDS011;12457;50.832;4.346;2022-10-16T16:36:52;11.32;;;3.10;;
24337;SDS011;12457;50.832;4.346;2022-10-16T16:39:18;4.68;;;2.67;;
24337;SDS011;12457;50.832;4.346;2022-10-16T16:41:44;6.45;;;3.40;;
24337;SDS011;12457;50.832;4.346;2022-10-16T16:44:11;11.50;;;3.40;;
24337;SDS011;12457;50.832;4.346;2022-10-16T16:46:37;8.50;;;2.70;;
24337;SDS011;12457;50.832;4.346;2022-10-16T16:49:04;7.68;;;2.47;;
24337;SDS011;12457;50.832;4.346;2022-10-16T16:51:31;6.43;;;2.72;;
24337;SDS011;12457;50.832;4.346;2022-10-16T16:53:58;6.68;;;2.35;;
24337;SDS011;12457;50.832;4.346;2022-10-16T16:56:24;11.85;;;4.00;;
24337;SDS011;12457;50.832;4.346;2022-10-16T16:58:54;15.13;;;6.38;;
24337;SDS011;12457;50.832;4.346;2022-10-16T17:01:22;12.75;;;4.90;;